Time;durP1;ratioP1;P1;durP2;ratioP2;P2;SDS_P1;SDS_P2;PMS_P1;PMS_P2;Temp;Humidity;BMP_temperature;BMP_pressure;BME280_temperature;BME280_humidity;BME280_pressure;Samples;Min_cycle;Max_cycle;Signal;HPM_P1;HPM_P2
2021/08/07 17:57:57;;;;;;;;;;;20.50;90.50;;;;;;5132035;27;20378;-95
2021/08/07 18:00:25;;;;;;;;;;;20.20;91.40;;;;;;5114367;28;19912;-94
2021/08/07 18:02:54;;;;;;;;;;;20.20;91.80;;;;;;5113373;28;20453;-94
2021/08/07 18:05:20;;;;;;;;;;;20.30;92.10;;;;;;5132294;28;20388;-93
2021/08/07 18:07:46;;;;;;;;;;;20.40;92.10;;;;;;5113765;28;20355;-96
2021/08/07 18:10:11;;;;;;;;;;;20.50;92.00;;;;;;5114111;28;19908;-94
2021/08/07 18:12:37;;;;;;;;;;;20.50;91.80;;;;;;5113004;28;19911;-93
2021/08/07 18:15:03;;;;;;;;;;;20.60;91.80;;;;;;5113844;28;19908;-93
2021/08/07 18:17:29;;;;;;;;;;;20.70;91.40;;;;;;5114509;28;19961;-94
2021/08/07 18:19:55;;;;;;;;;;;20.80;91.20;;;;;;5133610;28;19956;-93
2021/08/07 18:22:20;;;;;;;;;;;20.80;91.10;;;;;;5140074;28;20406;-94
2021/08/07 18:24:46;;;;;;;;;;;20.90;90.90;;;;;;5122194;28;19914;-93
2021/08/07 18:27:11;;;;;;;;;;;20.90;90.70;;;;;;5146440;28;19914;-93
2021/08/07 18:29:37;;;;;;;;;;;20.90;90.40;;;;;;5133687;28;19977;-92
2021/08/07 18:32:03;;;;;;;;;;;20.90;90.30;;;;;;5121221;28;19912;-92
2021/08/07 18:34:28;;;;;;;;;;;20.90;90.00;;;;;;5112277;28;20416;-93
2021/08/07 18:36:54;;;;;;;;;;;20.90;89.90;;;;;;5093101;28;20335;-94
2021/08/07 18:39:20;;;;;;;;;;;20.90;89.70;;;;;;5111631;28;19954;-92
2021/08/07 18:41:46;;;;;;;;;;;21.00;89.40;;;;;;5093171;28;20368;-92
2021/08/07 18:44:11;;;;;;;;;;;20.90;89.10;;;;;;5093626;28;19915;-93
2021/08/07 18:46:37;;;;;;;;;;;20.90;88.90;;;;;;5092985;28;19908;-93
2021/08/07 18:49:02;;;;;;;;;;;20.90;89.00;;;;;;5111235;28;20318;-93
2021/08/07 18:51:28;;;;;;;;;;;20.90;88.70;;;;;;5111122;28;19999;-93
2021/08/07 18:53:54;;;;;;;;;;;20.90;88.80;;;;;;5111310;28;19908;-94
2021/08/07 18:56:19;;;;;;;;;;;20.90;88.60;;;;;;5110895;28;20261;-92
2021/08/07 18:58:46;;;;;;;;;;;20.80;88.50;;;;;;5110984;28;20360;-92
2021/08/07 19:01:12;;;;;;;;;;;20.80;88.20;;;;;;5092672;28;19914;-93
2021/08/07 19:03:37;;;;;;;;;;;20.80;88.00;;;;;;5092629;28;19908;-93
2021/08/07 19:06:03;;;;;;;;;;;20.80;88.10;;;;;;5110876;28;19912;-95
2021/08/07 19:08:28;;;;;;;;;;;20.80;87.90;;;;;;5083775;28;19915;-93
2021/08/07 19:10:54;;;;;;;;;;;20.70;87.80;;;;;;5097709;28;20296;-92
2021/08/07 19:13:19;;;;;;;;;;;20.70;87.50;;;;;;5079228;28;20349;-94
2021/08/07 19:15:45;;;;;;;;;;;20.70;87.20;;;;;;5102143;28;19915;-94
2021/08/07 19:18:11;;;;;;;;;;;20.70;87.10;;;;;;5116966;28;19998;-91
2021/08/07 19:20:37;;;;;;;;;;;20.60;87.20;;;;;;5117372;28;19908;-92
2021/08/07 19:23:04;;;;;;;;;;;20.60;87.30;;;;;;5099076;28;20322;-93
2021/08/07 19:25:29;;;;;;;;;;;20.60;87.30;;;;;;5117329;28;19907;-92
2021/08/07 19:27:55;;;;;;;;;;;20.50;87.40;;;;;;5117537;28;20371;-92
2021/08/07 19:30:21;;;;;;;;;;;20.50;87.40;;;;;;5099057;28;20253;-92
2021/08/07 19:32:46;;;;;;;;;;;20.50;87.60;;;;;;5098932;28;19912;-93
2021/08/07 19:35:12;;;;;;;;;;;20.50;87.60;;;;;;5098847;28;20306;-93
2021/08/07 19:37:37;;;;;;;;;;;20.40;87.90;;;;;;5099196;28;19916;-95
2021/08/07 19:40:03;;;;;;;;;;;20.40;87.90;;;;;;5100300;28;19958;-94
2021/08/07 19:42:29;;;;;;;;;;;20.40;87.90;;;;;;5098808;28;20344;-95
2021/08/07 19:44:54;;;;;;;;;;;20.30;87.80;;;;;;5098805;28;19911;-92
2021/08/07 19:47:20;;;;;;;;;;;20.20;88.00;;;;;;5098607;28;19908;-94
2021/08/07 19:49:46;;;;;;;;;;;20.20;88.30;;;;;;5098796;28;19912;-92
2021/08/07 19:52:11;;;;;;;;;;;20.20;88.40;;;;;;5098827;28;19908;-92
2021/08/07 19:54:37;;;;;;;;;;;20.20;88.70;;;;;;5116597;28;20348;-92
2021/08/07 19:57:02;;;;;;;;;;;20.10;88.70;;;;;;5094377;28;19932;-93
2021/08/07 19:59:28;;;;;;;;;;;20.10;89.40;;;;;;5095792;28;19999;-92
2021/08/07 20:01:53;;;;;;;;;;;20.00;89.70;;;;;;5094818;28;19916;-92
2021/08/07 20:04:19;;;;;;;;;;;20.00;90.00;;;;;;5096152;28;19908;-92
2021/08/07 20:06:45;;;;;;;;;;;20.00;90.10;;;;;;5094839;28;20405;-93
2021/08/07 20:09:10;;;;;;;;;;;19.90;90.10;;;;;;5096082;28;20299;-93
2021/08/07 20:11:36;;;;;;;;;;;19.90;90.10;;;;;;5094792;28;19973;-92
2021/08/07 20:14:02;;;;;;;;;;;19.80;90.10;;;;;;5096014;28;19908;-92
2021/08/07 20:16:28;;;;;;;;;;;19.80;90.10;;;;;;5095837;28;19912;-94
2021/08/07 20:18:54;;;;;;;;;;;19.70;90.30;;;;;;5094175;28;19999;-92
2021/08/07 20:21:21;;;;;;;;;;;19.70;90.50;;;;;;5079258;28;20376;-93
2021/08/07 20:23:46;;;;;;;;;;;19.70;90.60;;;;;;5075901;28;19920;-92
2021/08/07 20:26:12;;;;;;;;;;;19.70;90.70;;;;;;5074291;28;19909;-92
2021/08/07 20:28:38;;;;;;;;;;;19.60;90.60;;;;;;5075892;28;19931;-91
2021/08/07 20:31:04;;;;;;;;;;;19.60;90.70;;;;;;5074272;28;19914;-93
2021/08/07 20:33:29;;;;;;;;;;;19.50;90.80;;;;;;5074519;28;20003;-92
2021/08/07 20:35:55;;;;;;;;;;;19.50;90.90;;;;;;5074332;28;19916;-92
2021/08/07 20:38:21;;;;;;;;;;;19.40;91.10;;;;;;5075551;28;20376;-92
2021/08/07 20:40:46;;;;;;;;;;;19.40;91.20;;;;;;5078891;28;19908;-93
2021/08/07 20:43:12;;;;;;;;;;;19.30;91.10;;;;;;5088324;28;19916;-91
2021/08/07 20:45:38;;;;;;;;;;;19.30;91.10;;;;;;5079067;28;20356;-92
2021/08/07 20:48:04;;;;;;;;;;;19.20;91.20;;;;;;5074217;28;19912;-92
2021/08/07 20:50:31;;;;;;;;;;;19.20;91.40;;;;;;5075077;28;19917;-91
2021/08/07 20:52:57;;;;;;;;;;;19.10;91.40;;;;;;5074986;28;20383;-91
